Na dvou svých letech snížila Air France emise CO2 o polovinu

05.05.22 Ve středu 13. dubna zahájila společnost Air France program ,,Air France ACT,, který představuje její novou dekarbonizační trajektorii, jejímž cílem je snížit do roku 2030 emise CO 2 na ujetý kilometr v porovnání s rokem 2019 o 30 %, tj. o 12 % méně celkových emisí. Aby společnost ilustrovala způsoby, jakými lze tohoto cíle dosáhnout, zavádí současně řadu opatření na dvou svých letech s odletem z letiště Paříž-Charles de Gaulle. Celý článek

Dopravce SunExpress spustil přímé lety do Antalye

03.05.22 Letecká společnost SunExpress od 1. května opět spojuje Prahu s oblíbenou turistickou destinací Antalyí v Turecku. SunExpress bude po celou dobu letního letového řádu nabízet přímé lety z pražského letiště až třikrát týdně. Na lety nasadí Boeing 737 s kapacitou pro 189 cestujících. Celý článek

Zprávy

aktualizováno

20.05.22 Celý článek

Všechny zprávy    

Všechny články

Zeptejte se odborníka

Zkušený personál jedné z největších leteckých škol Flying Academy je připraven Vám pomoci s jakýmikoli otázkami týkajícími se letectví.

Zeptejte se

Newsletter

Přihlaste se k odběru novinek.

Aktuální počasí

LKKB
LKKB 202000Z 25014KT 9999 -TSRA BKN050CB 19/16 Q1014 NOSIG

LKKV
LKKV 202000Z 23003KT 150V290 CAVOK 16/14 Q1015

LKMT
LKMT 202000Z 21007KT CAVOK 22/14 Q1015 NOSIG

LKPR
LKPR 202000Z 21009KT 9999 -SHRA VCTS FEW043CB 18/16 Q1013 NOSIG

LKTB
LKTB 202000Z 15005KT CAVOK 22/14 Q1015 NOSIG

Briefing

Kurzy měn

AUD AUD 16.75 Kč
EUR EUR 24.45 Kč
GBP GBP 29.30 Kč
HUF HUF 6.47 Kč
CHF CHF 24.14 Kč
USD USD 22.52 Kč